地図

経路データ

SID SEASON NUMBER BASIN SUBBASIN NAME ISO_TIME NATURE LAT LON WMO_WIND WMO_PRES WMO_AGENCY TRACK_TYPE DIST2LAND LANDFALL IFLAG USA_AGENCY USA_ATCF_ID USA_LAT USA_LON USA_RECORD USA_STATUS USA_WIND USA_PRES USA_SSHS USA_R34_NE USA_R34_SE USA_R34_SW USA_R34_NW USA_R50_NE USA_R50_SE USA_R50_SW USA_R50_NW USA_R64_NE USA_R64_SE USA_R64_SW USA_R64_NW USA_POCI USA_ROCI USA_RMW USA_EYE TOKYO_LAT TOKYO_LON TOKYO_GRADE TOKYO_WIND TOKYO_PRES TOKYO_R50_DIR TOKYO_R50_LONG TOKYO_R50_SHORT TOKYO_R30_DIR TOKYO_R30_LONG TOKYO_R30_SHORT TOKYO_LAND CMA_LAT CMA_LON CMA_CAT CMA_WIND CMA_PRES HKO_LAT HKO_LON HKO_CAT HKO_WIND HKO_PRES NEWDELHI_LAT NEWDELHI_LON NEWDELHI_GRADE NEWDELHI_WIND NEWDELHI_PRES NEWDELHI_CI NEWDELHI_DP NEWDELHI_POCI REUNION_LAT REUNION_LON REUNION_TYPE REUNION_WIND REUNION_PRES REUNION_TNUM REUNION_CI REUNION_RMW REUNION_R34_NE REUNION_R34_SE REUNION_R34_SW REUNION_R34_NW REUNION_R50_NE REUNION_R50_SE REUNION_R50_SW REUNION_R50_NW REUNION_R64_NE REUNION_R64_SE REUNION_R64_SW REUNION_R64_NW BOM_LAT BOM_LON BOM_TYPE BOM_WIND BOM_PRES BOM_TNUM BOM_CI BOM_RMW BOM_R34_NE BOM_R34_SE BOM_R34_SW BOM_R34_NW BOM_R50_NE BOM_R50_SE BOM_R50_SW BOM_R50_NW BOM_R64_NE BOM_R64_SE BOM_R64_SW BOM_R64_NW BOM_ROCI BOM_POCI BOM_EYE BOM_POS_METHOD BOM_PRES_METHOD NADI_LAT NADI_LON NADI_CAT NADI_WIND NADI_PRES WELLINGTON_LAT WELLINGTON_LON WELLINGTON_WIND WELLINGTON_PRES DS824_LAT DS824_LON DS824_STAGE DS824_WIND DS824_PRES TD9636_LAT TD9636_LON TD9636_STAGE TD9636_WIND TD9636_PRES TD9635_LAT TD9635_LON TD9635_WIND TD9635_PRES TD9635_ROCI NEUMANN_LAT NEUMANN_LON NEUMANN_CLASS NEUMANN_WIND NEUMANN_PRES MLC_LAT MLC_LON MLC_CLASS MLC_WIND MLC_PRES USA_GUST BOM_GUST BOM_GUST_PER REUNION_GUST REUNION_GUST_PER USA_SEAHGT USA_SEARAD_NE USA_SEARAD_SE USA_SEARAD_SW USA_SEARAD_NW STORM_SPEED STORM_DIR
1877041S20059 1877 5 SI MM NOT_NAMED 1877-02-10 00:00:00 TS -20.3000 58.9000 main 114 114 _________O____ -1 -20.3000 58.9000 TC 2 149
1877041S20059 1877 5 SI MM NOT_NAMED 1877-02-10 03:00:00 TS -20.3900 58.9600 main 125 125 _________P____ -1 -20.3900 58.9600 TC 2 153
1877041S20059 1877 5 SI MM NOT_NAMED 1877-02-10 06:00:00 TS -20.5000 59.0000 main 127 127 _________O____ -1 -20.5000 59.0000 TC 3 170
1877041S20059 1877 5 SI MM NOT_NAMED 1877-02-10 09:00:00 TS -20.6425 59.0075 main 129 129 _________P____ -1 -20.6425 59.0075 TC 3 0
1877041S20059 1877 5 SI MM NOT_NAMED 1877-02-10 12:00:00 TS -20.8000 59.0000 main 136 136 _________O____ -1 -20.8000 59.0000 TC 3 0
1877041S20059 1877 5 SI MM NOT_NAMED 1877-02-10 15:00:00 TS -20.9425 59.0000 main 141 141 _________P____ -1 -20.9425 59.0000 TC 3 0
1877041S20059 1877 5 SI MM NOT_NAMED 1877-02-10 18:00:00 TS -21.1000 59.0000 main 150 150 _________O____ -1 -21.1000 59.0000 TC 4 0
1877041S20059 1877 5 SI MM NOT_NAMED 1877-02-10 21:00:00 TS -21.2925 59.0000 main 161 161 _________P____ -1 -21.2925 59.0000 TC 4 0
1877041S20059 1877 5 SI MM NOT_NAMED 1877-02-11 00:00:00 TS -21.5000 59.0000 main 175 175 _________O____ -1 -21.5000 59.0000 TC 4 0
1877041S20059 1877 5 SI MM NOT_NAMED 1877-02-11 03:00:00 TS -21.7000 59.0000 main 190 190 _________P____ -1 -21.7000 59.0000 TC 4 0
1877041S20059 1877 5 SI MM NOT_NAMED 1877-02-11 06:00:00 TS -21.9000 59.0000 main 206 206 _________O____ -1 -21.9000 59.0000 TC 4 0
1877041S20059 1877 5 SI MM NOT_NAMED 1877-02-11 09:00:00 TS -22.1075 59.0000 main 223 223 _________P____ -1 -22.1075 59.0000 TC 4 0
1877041S20059 1877 5 SI MM NOT_NAMED 1877-02-11 12:00:00 TS -22.3000 59.0000 main 242 242 _________O____ -1 -22.3000 59.0000 TC 3 178
1877041S20059 1877 5 SI MM NOT_NAMED 1877-02-11 15:00:00 TS -22.4500 59.0000 main 251 251 _________P____ -1 -22.4500 59.0000 TC 3 0
1877041S20059 1877 5 SI MM NOT_NAMED 1877-02-11 18:00:00 TS -22.6000 59.0000 main 270 270 _________O____ -1 -22.6000 59.0000 TC 3 0
1877041S20059 1877 5 SI MM NOT_NAMED 1877-02-11 21:00:00 TS -22.7700 59.0000 main 290 290 _________P____ -1 -22.7700 59.0000 TC 4 0
1877041S20059 1877 5 SI MM NOT_NAMED 1877-02-12 00:00:00 TS -23.0000 59.0000 main 310 310 _________O____ -1 -23.0000 59.0000 TC 6 181
1877041S20059 1877 5 SI MM NOT_NAMED 1877-02-12 03:00:00 TS -23.3350 58.9926 main 340 340 _________P____ -1 -23.3350 58.9926 TC 7 0
1877041S20059 1877 5 SI MM NOT_NAMED 1877-02-12 06:00:00 TS -23.7000 59.0000 main 381 381 _________O____ -1 -23.7000 59.0000 TC 7 176
1877041S20059 1877 5 SI MM NOT_NAMED 1877-02-12 09:00:00 TS -24.0150 59.0499 main 413 413 _________P____ -1 -24.0150 59.0499 TC 6 172
1877041S20059 1877 5 SI MM NOT_NAMED 1877-02-12 12:00:00 TS -24.3000 59.1000 main 448 448 _________O____ -1 -24.3000 59.1000 TC 5 176
1877041S20059 1877 5 SI MM NOT_NAMED 1877-02-12 15:00:00 TS -24.5575 59.1001 main 480 480 _________P____ -1 -24.5575 59.1001 TC 5 178
1877041S20059 1877 5 SI MM NOT_NAMED 1877-02-12 18:00:00 TS -24.8000 59.1000 main 501 501 _________O____ -1 -24.8000 59.1000 TC 5 174
1877041S20059 1877 5 SI MM NOT_NAMED 1877-02-12 21:00:00 TS -25.0200 59.1425 main 523 523 _________P____ -1 -25.0200 59.1425 TC 5 170
1877041S20059 1877 5 SI MM NOT_NAMED 1877-02-13 00:00:00 TS -25.3000 59.2000 main 558 558 _________O____ -1 -25.3000 59.2000 TC 7 172
1877041S20059 1877 5 SI MM NOT_NAMED 1877-02-13 03:00:00 TS -25.7275 59.2500 main 603 601 _________P____ -1 -25.7275 59.2500 TC 9 175
1877041S20059 1877 5 SI MM NOT_NAMED 1877-02-13 06:00:00 TS -26.2000 59.3000 main 653 653 _________O____ -1 -26.2000 59.3000 TC 9 174
1877041S20059 1877 5 SI MM NOT_NAMED 1877-02-13 09:00:00 TS -26.6000 59.3501 main 695 695 _________P____ -1 -26.6000 59.3501 TC 8 174
1877041S20059 1877 5 SI MM NOT_NAMED 1877-02-13 12:00:00 TS -27.0000 59.4000 main 734 734 _________O____ -1 -27.0000 59.4000 TC 9 174
1877041S20059 1877 5 SI MM NOT_NAMED 1877-02-13 15:00:00 TS -27.4500 59.4426 main 772 772 _________P____ -1 -27.4500 59.4426 TC 9 175
1877041S20059 1877 5 SI MM NOT_NAMED 1877-02-13 18:00:00 TS -27.9000 59.5000 main 826 826 _________O____ -1 -27.9000 59.5000 TC 8 172
1877041S20059 1877 5 SI MM NOT_NAMED 1877-02-13 21:00:00 TS -28.2775 59.5852 main 869 869 _________P____ -1 -28.2775 59.5852 TC 8 167
1877041S20059 1877 5 SI MM NOT_NAMED 1877-02-14 00:00:00 TS -28.7000 59.7000 main 913 913 _________O____ -1 -28.7000 59.7000 TC 10 167
1877041S20059 1877 5 SI MM NOT_NAMED 1877-02-14 03:00:00 TS -29.2700 59.8425 main 977 977 _________P____ -1 -29.2700 59.8425 TC 12 168
1877041S20059 1877 5 SI MM NOT_NAMED 1877-02-14 06:00:00 TS -29.9000 60.0000 main 1046 1046 _________O____ -1 -29.9000 60.0000 TC 13 168
1877041S20059 1877 5 SI MM NOT_NAMED 1877-02-14 09:00:00 TS -30.5300 60.1500 main 1115 1115 _________P____ -1 -30.5300 60.1500 TC 12 168
1877041S20059 1877 5 SI MM NOT_NAMED 1877-02-14 12:00:00 TS -31.1000 60.3000 main 1179 1179 _________O____ -1 -31.1000 60.3000 TC 10 166
1877041S20059 1877 5 SI MM NOT_NAMED 1877-02-14 15:00:00 TS -31.5374 60.4428 main 1224 1224 _________P____ -1 -31.5374 60.4428 TC 8 162
1877041S20059 1877 5 SI MM NOT_NAMED 1877-02-14 18:00:00 TS -31.9000 60.6000 main 1272 1272 _________O____ -1 -31.9000 60.6000 TC 8 158
1877041S20059 1877 5 SI MM NOT_NAMED 1877-02-14 21:00:00 TS -32.2501 60.7896 main 1321 1321 _________P____ -1 -32.2501 60.7896 TC 8 154
1877041S20059 1877 5 SI MM NOT_NAMED 1877-02-15 00:00:00 TS -32.6000 61.0000 main 1359 _________O____ -1 -32.6000 61.0000 TC 8 153

IBTrACS Databaseについて

本データベースは、米国NOAAが公開する1842年以降の世界の熱帯低気圧のベストトラックデータアーカイブInternational Best Track Archive for Climate Stewardship (IBTrACS)を、ウェブで閲覧しやすい形式に変換したものです。

最終更新日:2021-10-21